Time;durP1;ratioP1;P1;durP2;ratioP2;P2;SDS_P1;SDS_P2;PMS_P1;PMS_P2;Temp;Humidity;BMP_temperature;BMP_pressure;BME280_temperature;BME280_humidity;BME280_pressure;Samples;Min_cycle;Max_cycle;Signal;HPM_P1;HPM_P2
2022/07/05 00:00:00;;;;;;;3.17;2.40;;;;;;;22.34;54.50;94800.13;5052354;28;20173;-62
2022/07/05 00:02:25;;;;;;;3.47;2.42;;;;;;;22.48;54.06;94816.50;5051808;28;20224;-62
2022/07/05 00:04:51;;;;;;;7.22;2.35;;;;;;;22.41;54.10;94815.69;5052179;28;20182;-59
2022/07/05 00:07:18;;;;;;;3.10;1.90;;;;;;;22.31;52.97;94831.63;5052004;28;20657;-60
2022/07/05 00:09:48;;;;;;;4.57;2.17;;;;;;;22.31;54.61;94784.97;5051892;28;20713;-60
2022/07/05 00:12:14;;;;;;;7.20;2.47;;;;;;;22.23;53.88;94803.31;5051835;28;20259;-59
2022/07/05 00:14:40;;;;;;;3.08;1.90;;;;;;;22.21;54.90;94770.81;5051862;28;20186;-62
2022/07/05 00:17:06;;;;;;;3.65;2.33;;;;;;;22.29;54.83;94768.84;5051779;28;20193;-62
2022/07/05 00:19:32;;;;;;;3.55;2.42;;;;;;;22.26;54.82;94766.63;5051357;28;20202;-63
2022/07/05 00:21:57;;;;;;;1.85;1.75;;;;;;;22.34;54.45;94781.22;5051363;28;20213;-64
2022/07/05 00:24:23;;;;;;;2.13;2.00;;;;;;;22.29;54.98;94768.03;5051813;28;20174;-61
2022/07/05 00:26:49;;;;;;;3.75;2.20;;;;;;;22.17;54.78;94772.22;5051744;28;20614;-63
2022/07/05 00:29:14;;;;;;;2.65;1.92;;;;;;;22.03;54.13;94780.94;5051562;28;20688;-60
2022/07/05 00:31:40;;;;;;;5.10;2.17;;;;;;;22.09;54.27;94786.16;5051628;28;20264;-63
2022/07/05 00:34:05;;;;;;;4.07;2.10;;;;;;;22.07;54.17;94771.78;5051519;28;20208;-60
2022/07/05 00:36:31;;;;;;;3.42;2.00;;;;;;;22.03;53.81;94789.53;5050693;28;20288;-62
2022/07/05 00:38:56;;;;;;;7.55;2.30;;;;;;;21.95;54.49;94766.41;5051337;28;20184;-58
2022/07/05 00:41:21;;;;;;;2.97;2.08;;;;;;;21.99;54.21;94777.16;5051339;28;20190;-63
2022/07/05 00:43:55;;;;;;;6.80;1.90;;;;;;;22.08;53.33;94801.88;5051305;28;20193;-62
2022/07/05 00:46:21;;;;;;;5.32;2.30;;;;;;;22.04;54.02;94774.78;5051388;28;20253;-60
2022/07/05 00:48:47;;;;;;;3.90;2.22;;;;;;;22.09;54.11;94767.22;5055332;28;20193;-61
2022/07/05 00:51:12;;;;;;;4.03;2.45;;;;;;;21.96;54.40;94780.94;5055439;28;20201;-63
2022/07/05 00:53:38;;;;;;;6.22;1.95;;;;;;;21.96;53.77;94790.50;5055333;28;20537;-62
2022/07/05 00:56:05;;;;;;;5.53;1.88;;;;;;;21.91;53.90;94780.72;5055294;28;20231;-63
2022/07/05 00:58:32;;;;;;;4.60;1.80;;;;;;;21.88;52.63;94814.75;5055182;28;20174;-63
2022/07/05 01:00:58;;;;;;;3.95;1.63;;;;;;;21.84;53.32;94797.22;5055330;28;20319;-62
2022/07/05 01:03:23;;;;;;;3.10;1.95;;;;;;;21.59;53.88;94774.41;5037066;28;20296;-62
2022/07/05 01:05:56;;;;;;;3.08;2.00;;;;;;;21.58;53.92;94762.50;5055560;28;20182;-63
2022/07/05 01:08:23;;;;;;;4.85;2.05;;;;;;;21.66;53.55;94785.59;5037231;28;20193;-63
2022/07/05 01:10:50;;;;;;;1.52;1.30;;;;;;;21.64;53.36;94787.59;5054783;28;20181;-63
2022/07/05 01:13:16;;;;;;;2.40;1.45;;;;;;;21.70;52.96;94799.75;5054953;28;20614;-62
2022/07/05 01:15:42;;;;;;;5.05;1.80;;;;;;;21.82;52.35;94828.50;5037483;28;20174;-59
2022/07/05 01:18:09;;;;;;;2.78;2.28;;;;;;;21.97;51.01;94882.72;5055061;28;20273;-63
2022/07/05 01:20:35;;;;;;;5.32;1.63;;;;;;;21.93;50.53;94882.31;5054574;28;20614;-64
2022/07/05 01:23:02;;;;;;;5.28;1.67;;;;;;;21.90;51.23;94872.31;5054776;28;20205;-62
2022/07/05 01:25:29;;;;;;;3.15;1.73;;;;;;;21.90;51.88;94845.66;5036730;28;20190;-61
2022/07/05 01:27:57;;;;;;;3.53;2.03;;;;;;;21.98;50.53;94892.09;5054592;28;20201;-61
2022/07/05 01:30:23;;;;;;;2.60;1.63;;;;;;;21.93;50.93;94891.88;5055386;28;20194;-59
2022/07/05 01:32:49;;;;;;;2.40;1.77;;;;;;;21.83;51.41;94874.09;5036710;28;20215;-62
2022/07/05 01:35:23;;;;;;;2.05;1.63;;;;;;;21.81;51.55;94862.31;5054993;28;20205;-62
2022/07/05 01:37:49;;;;;;;3.10;1.60;;;;;;;21.72;52.58;94834.00;5054893;28;20232;-61
2022/07/05 01:40:16;;;;;;;4.43;1.70;;;;;;;21.83;51.39;94868.13;5055035;28;20196;-59
2022/07/05 01:42:42;;;;;;;1.73;1.63;;;;;;;21.70;52.16;94838.56;5054478;28;20584;-59
2022/07/05 01:45:07;;;;;;;1.90;1.80;;;;;;;21.68;52.21;94835.38;5054939;28;20658;-60
2022/07/05 01:47:40;;;;;;;3.97;1.77;;;;;;;21.67;52.48;94818.25;5054607;28;20255;-60
2022/07/05 01:50:07;;;;;;;1.85;1.70;;;;;;;21.77;53.30;94799.78;5054757;28;20189;-60
2022/07/05 01:52:38;;;;;;;1.85;1.63;;;;;;;21.83;52.64;94817.16;5054209;28;20220;-61
2022/07/05 01:55:04;;;;;;;4.50;1.90;;;;;;;21.95;53.32;94801.84;5054799;28;20675;-61
2022/07/05 01:57:30;;;;;;;6.43;2.33;;;;;;;21.85;53.31;94798.84;5054280;28;20201;-59
2022/07/05 01:59:55;;;;;;;3.55;1.85;;;;;;;21.72;53.47;94787.41;5053803;28;20182;-62
2022/07/05 02:02:21;;;;;;;3.17;1.70;;;;;;;21.72;53.53;94796.97;5053986;28;20232;-61
2022/07/05 02:04:46;;;;;;;3.15;1.60;;;;;;;21.59;54.16;94764.06;5036242;28;20595;-60
2022/07/05 02:07:12;;;;;;;3.20;1.67;;;;;;;21.55;54.87;94744.75;5053993;28;20339;-62
2022/07/05 02:09:37;;;;;;;3.15;2.05;;;;;;;21.72;54.75;94761.53;5054023;28;20679;-63
2022/07/05 02:12:04;;;;;;;5.85;2.15;;;;;;;21.63;55.03;94739.41;5053843;28;20201;-61
2022/07/05 02:14:30;;;;;;;4.72;2.15;;;;;;;21.49;55.73;94724.81;5054022;28;20186;-63
2022/07/05 02:16:56;;;;;;;1.55;1.45;;;;;;;21.34;56.48;94703.50;5054054;28;20225;-61
2022/07/05 02:19:21;;;;;;;3.50;1.80;;;;;;;21.52;56.45;94706.34;5060750;22;20229;-63
2022/07/05 02:21:47;;;;;;;3.28;1.88;;;;;;;21.49;56.07;94721.47;5053594;28;20213;-61
2022/07/05 02:24:12;;;;;;;4.20;1.90;;;;;;;21.49;55.94;94719.66;5053718;28;20184;-62
2022/07/05 02:26:38;;;;;;;3.13;1.95;;;;;;;21.39;56.62;94705.50;5053730;28;20198;-62
2022/07/05 02:29:04;;;;;;;3.45;1.65;;;;;;;21.39;57.24;94695.16;5053747;28;20177;-60
2022/07/05 02:31:30;;;;;;;2.00;1.90;;;;;;;21.21;58.09;94676.81;5053656;28;20681;-62
2022/07/05 02:33:56;;;;;;;2.30;1.67;;;;;;;21.04;58.18;94681.50;5035780;28;20269;-60
2022/07/05 02:36:21;;;;;;;2.85;1.70;;;;;;;21.15;58.40;94680.94;5053525;28;20228;-62
2022/07/05 02:38:47;;;;;;;2.67;1.73;;;;;;;21.34;56.99;94713.03;5060343;22;20222;-60
2022/07/05 02:41:12;;;;;;;4.78;1.95;;;;;;;21.38;56.54;94724.59;5053458;28;20678;-62
2022/07/05 02:43:39;;;;;;;3.38;2.20;;;;;;;21.24;57.14;94723.75;5053989;28;20213;-60
2022/07/05 02:46:06;;;;;;;3.78;1.98;;;;;;;21.16;55.02;94783.41;5053255;28;20675;-63
2022/07/05 02:48:33;;;;;;;2.55;1.73;;;;;;;21.03;56.78;94726.44;5053817;28;20240;-58
2022/07/05 02:50:59;;;;;;;2.35;1.85;;;;;;;20.84;55.59;94766.69;5053095;28;20231;-61
2022/07/05 02:53:25;;;;;;;2.33;1.77;;;;;;;20.82;55.88;94758.31;5054052;28;20552;-61
2022/07/05 02:55:50;;;;;;;3.05;1.77;;;;;;;20.92;56.47;94745.06;5053165;28;20205;-62
2022/07/05 02:58:19;;;;;;;3.67;1.83;;;;;;;20.88;55.92;94749.81;5053500;28;20212;-62
2022/07/05 03:00:45;;;;;;;6.93;2.30;;;;;;;20.79;56.27;94743.19;5052932;28;20173;-62
2022/07/05 03:03:11;;;;;;;2.70;1.90;;;;;;;20.86;57.75;94712.22;5053224;28;20304;-61
2022/07/05 03:05:36;;;;;;;5.28;2.30;;;;;;;20.91;56.58;94741.66;5035080;28;20180;-61
2022/07/05 03:08:02;;;;;;;4.85;1.90;;;;;;;20.95;57.55;94718.03;5053121;28;20249;-59
2022/07/05 03:10:27;;;;;;;2.13;1.92;;;;;;;20.98;57.71;94713.28;5052076;28;20367;-60
2022/07/05 03:12:52;;;;;;;2.85;1.73;;;;;;;21.10;58.53;94691.06;5053208;28;20723;-62
2022/07/05 03:15:24;;;;;;;3.50;1.85;;;;;;;21.05;58.38;94696.00;5053020;28;20178;-63
2022/07/05 03:17:50;;;;;;;3.35;1.95;;;;;;;20.99;58.75;94683.06;5053114;28;20210;-63
2022/07/05 03:20:16;;;;;;;4.63;2.53;;;;;;;20.92;59.08;94673.47;5052631;28;20180;-63
2022/07/05 03:22:41;;;;;;;5.18;3.13;;;;;;;20.91;59.42;94660.72;5052813;28;20220;-64
2022/07/05 03:25:07;;;;;;;2.92;2.20;;;;;;;21.08;59.14;94668.97;5052648;28;20181;-63
2022/07/05 03:27:33;;;;;;;3.45;2.97;;;;;;;21.05;59.72;94657.22;5052586;28;20266;-62
2022/07/05 03:29:58;;;;;;;7.50;4.05;;;;;;;21.08;61.93;94605.16;5052397;28;20268;-62
2022/07/05 03:32:24;;;;;;;7.88;5.25;;;;;;;20.97;63.57;94576.47;5034446;28;20201;-62
2022/07/05 03:34:49;;;;;;;6.80;4.50;;;;;;;20.93;63.80;94581.19;5052321;28;20200;-62
2022/07/05 03:37:15;;;;;;;5.88;3.42;;;;;;;21.26;63.27;94595.06;5052308;28;20209;-61
2022/07/05 03:39:41;;;;;;;9.88;3.72;;;;;;;21.51;64.36;94574.59;5052597;28;20190;-63
2022/07/05 03:42:06;;;;;;;6.35;3.63;;;;;;;21.53;64.46;94573.38;5052267;28;20294;-62
2022/07/05 03:44:32;;;;;;;5.28;3.92;;;;;;;21.46;64.30;94574.38;5034300;28;20177;-61
2022/07/05 03:46:59;;;;;;;4.60;4.20;;;;;;;21.41;65.02;94563.84;5034170;28;20198;-62
2022/07/05 03:49:25;;;;;;;5.18;3.22;;;;;;;21.38;64.97;94564.22;5052130;28;20205;-63
2022/07/05 03:51:50;;;;;;;7.88;3.63;;;;;;;21.36;65.69;94551.50;5034183;28;20318;-62
2022/07/05 03:54:16;;;;;;;4.25;3.42;;;;;;;21.30;65.62;94560.03;5052109;28;20560;-59
2022/07/05 03:56:42;;;;;;;7.05;3.10;;;;;;;21.24;65.51;94560.03;5033945;28;20205;-65
2022/07/05 03:59:08;;;;;;;5.43;3.35;;;;;;;21.19;66.30;94545.09;5052002;28;20176;-62
2022/07/05 04:01:34;;;;;;;3.38;2.55;;;;;;;21.28;65.60;94563.81;5051947;28;20588;-62
2022/07/05 04:03:59;;;;;;;5.68;3.47;;;;;;;21.21;65.95;94558.63;5052053;28;20200;-61
2022/07/05 04:06:25;;;;;;;5.00;3.17;;;;;;;21.33;65.61;94564.03;5051878;28;20189;-64
2022/07/05 04:08:50;;;;;;;6.13;3.65;;;;;;;21.40;65.47;94572.56;5034133;28;20215;-60
2022/07/05 04:11:16;;;;;;;8.02;3.40;;;;;;;21.29;65.98;94560.25;5052084;28;20229;-60
2022/07/05 04:13:42;;;;;;;7.80;3.83;;;;;;;21.30;66.69;94549.69;5052180;28;20693;-59
2022/07/05 04:16:08;;;;;;;5.28;3.70;;;;;;;21.27;68.01;94529.38;5052000;28;20178;-59
2022/07/05 04:18:34;;;;;;;5.53;3.80;;;;;;;21.25;68.22;94531.38;5033816;28;20198;-66
2022/07/05 04:21:00;;;;;;;8.93;4.63;;;;;;;21.13;67.64;94550.28;5051597;28;20184;-63
2022/07/05 04:23:25;;;;;;;10.50;4.30;;;;;;;21.05;69.20;94533.13;5051696;28;20209;-62
2022/07/05 04:25:51;;;;;;;8.20;4.82;;;;;;;20.91;68.75;94544.41;5051718;28;20205;-63
2022/07/05 04:28:16;;;;;;;8.70;3.55;;;;;;;20.78;67.12;94578.00;5033845;28;20648;-64
2022/07/05 04:30:42;;;;;;;3.50;3.20;;;;;;;20.71;67.09;94577.97;5033654;28;20242;-63
2022/07/05 04:33:07;;;;;;;5.13;4.00;;;;;;;20.69;68.83;94542.97;5051893;28;20287;-63
2022/07/05 04:35:33;;;;;;;6.93;4.03;;;;;;;20.84;67.19;94574.63;5051314;28;20300;-62
2022/07/05 04:37:58;;;;;;;7.03;3.58;;;;;;;20.98;67.16;94573.69;5051734;28;20232;-63
2022/07/05 04:40:24;;;;;;;11.30;4.80;;;;;;;21.01;66.51;94583.59;5051571;28;20646;-59
2022/07/05 04:42:49;;;;;;;19.15;4.80;;;;;;;21.01;67.06;94583.59;5051856;28;20308;-62
2022/07/05 04:45:15;;;;;;;5.13;4.40;;;;;;;20.98;68.07;94558.16;5050803;28;20206;-64
2022/07/05 04:47:41;;;;;;;6.40;3.83;;;;;;;20.91;68.32;94558.13;5051872;28;20213;-59
2022/07/05 04:50:07;;;;;;;8.50;4.15;;;;;;;20.89;68.80;94554.16;5051457;28;20178;-60
2022/07/05 04:52:32;;;;;;;6.28;3.72;;;;;;;20.96;68.92;94546.41;5051524;28;20209;-60
2022/07/05 04:54:58;;;;;;;9.40;4.30;;;;;;;21.15;69.32;94538.72;5051343;28;20245;-59
2022/07/05 04:57:23;;;;;;;5.75;3.65;;;;;;;21.17;66.14;94611.72;5051579;28;20579;-63
2022/07/05 04:59:49;;;;;;;10.18;6.80;;;;;;;21.54;69.56;94550.91;5051282;28;20182;-63
2022/07/05 05:02:15;;;;;;;12.95;4.22;;;;;;;21.67;65.67;94637.09;5051504;28;20213;-64
2022/07/05 05:04:41;;;;;;;8.30;5.20;;;;;;;21.78;65.93;94627.94;5033236;28;20190;-61
2022/07/05 05:07:06;;;;;;;5.93;4.03;;;;;;;21.93;65.77;94627.78;5033274;28;20274;-63
2022/07/05 05:09:31;;;;;;;9.60;4.88;;;;;;;22.01;65.15;94632.75;5051377;28;20186;-61
2022/07/05 05:11:57;;;;;;;7.68;5.07;;;;;;;22.16;65.44;94643.72;5051095;28;20271;-61
2022/07/05 05:14:22;;;;;;;7.90;5.07;;;;;;;22.36;64.91;94649.66;5051124;28;20192;-59
2022/07/05 05:16:48;;;;;;;7.38;5.07;;;;;;;22.64;67.71;94592.41;5050982;28;20198;-61
2022/07/05 05:19:13;;;;;;;9.60;4.45;;;;;;;22.86;65.51;94628.22;5033330;28;20185;-63
2022/07/05 05:21:39;;;;;;;8.38;3.90;;;;;;;22.63;61.46;94731.56;5050804;28;20679;-63
2022/07/05 05:24:05;;;;;;;8.65;4.30;;;;;;;22.58;62.48;94707.28;5033005;28;20737;-61
2022/07/05 05:26:30;;;;;;;10.73;3.88;;;;;;;22.27;62.66;94685.34;5049296;28;20201;-62
2022/07/05 05:28:56;;;;;;;10.68;3.33;;;;;;;22.53;62.50;94695.69;5030934;28;20185;-63
2022/07/05 05:31:21;;;;;;;6.05;3.38;;;;;;;22.34;62.66;94687.94;5032098;28;20210;-63
2022/07/05 05:33:47;;;;;;;6.32;3.10;;;;;;;22.36;63.81;94668.59;5052094;28;20614;-60
2022/07/05 05:36:12;;;;;;;10.18;3.67;;;;;;;22.34;62.06;94703.47;5054551;28;20212;-62
2022/07/05 05:38:38;;;;;;;9.98;3.67;;;;;;;22.33;63.01;94678.56;5054902;28;20280;-63
2022/07/05 05:41:03;;;;;;;9.27;3.20;;;;;;;22.11;63.27;94669.41;5054764;28;20666;-63
2022/07/05 05:43:29;;;;;;;6.53;3.97;;;;;;;22.15;63.47;94660.25;5055105;28;20292;-64
2022/07/05 05:45:55;;;;;;;8.80;3.78;;;;;;;22.26;63.40;94668.19;5054427;28;20177;-66
2022/07/05 05:48:22;;;;;;;6.82;3.55;;;;;;;22.34;63.88;94659.44;5055230;28;20190;-61
2022/07/05 05:50:48;;;;;;;9.38;3.45;;;;;;;22.33;65.66;94608.59;5054619;28;20205;-62
2022/07/05 05:53:14;;;;;;;8.77;4.05;;;;;;;22.41;62.06;94702.47;5054930;28;20209;-63
2022/07/05 05:55:43;;;;;;;7.70;4.13;;;;;;;22.58;64.47;94648.47;5054509;28;20204;-62
2022/07/05 05:58:20;;;;;;;9.68;4.57;;;;;;;22.64;63.57;94676.16;5054574;28;20251;-60
2022/07/05 06:00:48;;;;;;;7.90;3.83;;;;;;;22.58;62.94;94686.53;5054459;28;20211;-60
2022/07/05 06:03:18;;;;;;;16.27;5.47;;;;;;;22.84;62.94;94700.25;5036192;28;20224;-63
2022/07/05 06:05:43;;;;;;;7.97;4.15;;;;;;;23.05;62.83;94688.78;5054216;28;20624;-64
2022/07/05 06:08:09;;;;;;;5.93;3.85;;;;;;;23.04;63.68;94680.22;5036523;28;20219;-61
2022/07/05 06:10:35;;;;;;;8.40;4.28;;;;;;;23.01;63.05;94685.00;5054093;28;20601;-62
2022/07/05 06:13:04;;;;;;;5.55;4.18;;;;;;;22.80;63.09;94682.69;5054391;28;20218;-60
2022/07/05 06:15:30;;;;;;;9.45;3.83;;;;;;;22.89;63.38;94674.47;5053896;28;20181;-63
2022/07/05 06:17:56;;;;;;;8.90;4.13;;;;;;;22.96;63.56;94696.00;5054250;28;20208;-59
2022/07/05 06:20:24;;;;;;;9.00;4.22;;;;;;;22.87;61.82;94725.75;5053961;28;20208;-60
2022/07/05 06:22:50;;;;;;;5.75;4.05;;;;;;;22.97;60.92;94741.69;5053838;28;20278;-60
2022/07/05 06:25:16;;;;;;;7.82;4.15;;;;;;;22.97;60.74;94746.88;5053534;28;20209;-63
2022/07/05 06:27:45;;;;;;;9.48;3.78;;;;;;;23.25;60.03;94760.34;5035566;28;20240;-62
2022/07/05 06:30:14;;;;;;;6.20;3.95;;;;;;;23.06;61.09;94727.50;5053543;28;20701;-61
2022/07/05 06:32:39;;;;;;;8.52;3.70;;;;;;;23.01;61.40;94736.88;5053656;28;20683;-63
2022/07/05 06:35:06;;;;;;;9.23;4.25;;;;;;;23.08;59.89;94764.41;5035610;28;20181;-60
2022/07/05 06:38:02;;;;;;;4.55;3.85;;;;;;;23.21;60.50;94742.84;5053507;28;20236;-63
2022/07/05 06:40:40;;;;;;;10.70;3.75;;;;;;;23.30;61.61;94732.00;5036824;28;20193;-59
2022/07/05 06:43:09;;;;;;;6.80;3.90;;;;;;;23.42;59.28;94783.28;5054209;28;20547;-63
2022/07/05 06:45:35;;;;;;;6.53;3.88;;;;;;;23.23;58.48;94792.72;5053024;28;20260;-65
2022/07/05 06:48:03;;;;;;;10.90;4.22;;;;;;;23.12;58.36;94793.34;5053487;28;20290;-63
2022/07/05 06:50:31;;;;;;;12.63;4.15;;;;;;;23.34;59.13;94773.94;5053118;28;20189;-64
2022/07/05 06:52:57;;;;;;;8.25;3.70;;;;;;;23.37;57.57;94815.06;5053279;28;20288;-64
2022/07/05 06:55:23;;;;;;;6.13;4.40;;;;;;;23.50;56.91;94814.22;5053188;28;20257;-59
2022/07/05 06:57:49;;;;;;;9.10;4.10;;;;;;;23.60;56.59;94815.38;5053327;28;20209;-62
2022/07/05 07:00:15;;;;;;;6.00;4.18;;;;;;;23.83;57.15;94800.13;5052894;28;20264;-62
2022/07/05 07:02:41;;;;;;;9.65;4.32;;;;;;;23.73;57.82;94780.78;5035146;28;20229;-60
2022/07/05 07:05:08;;;;;;;8.20;3.83;;;;;;;23.98;64.72;94612.78;5053197;28;20312;-60
2022/07/05 07:10:18;;;;;;;9.45;4.35;;;;;;;24.28;58.22;94779.28;5053092;28;20173;-62
2022/07/05 07:12:43;;;;;;;16.90;4.80;;;;;;;24.33;57.19;94806.25;5053101;28;20209;-63
2022/07/05 07:15:09;;;;;;;10.20;4.40;;;;;;;24.27;56.33;94817.47;5052812;28;20173;-63
2022/07/05 07:17:35;;;;;;;15.13;4.60;;;;;;;24.40;56.04;94840.78;5052815;28;20204;-64
2022/07/05 07:20:00;;;;;;;9.70;5.10;;;;;;;24.47;56.42;94828.53;5034919;28;20197;-64
2022/07/05 07:22:26;;;;;;;8.98;4.55;;;;;;;24.68;56.78;94817.00;5052421;28;20679;-59
2022/07/05 07:24:51;;;;;;;5.55;4.18;;;;;;;24.68;54.79;94854.22;5052420;28;20268;-60
2022/07/05 07:27:17;;;;;;;9.57;5.00;;;;;;;24.62;55.00;94864.66;5059537;22;20237;-65
2022/07/05 07:29:42;;;;;;;9.60;5.03;;;;;;;24.48;54.94;94850.13;5052341;28;20177;-63
2022/07/05 07:32:09;;;;;;;7.63;4.28;;;;;;;24.56;54.59;94861.09;5052546;28;20258;-64
2022/07/05 07:34:36;;;;;;;8.90;4.85;;;;;;;24.75;54.45;94864.56;5052542;28;20243;-63
2022/07/05 07:37:02;;;;;;;11.52;5.10;;;;;;;24.80;54.63;94862.94;5052542;28;20193;-65
2022/07/05 07:39:28;;;;;;;9.85;4.93;;;;;;;24.77;53.70;94878.97;5052096;28;20174;-63
2022/07/05 07:41:53;;;;;;;9.63;4.88;;;;;;;24.85;53.05;94888.31;5051962;28;20247;-64
2022/07/05 07:44:19;;;;;;;8.40;4.32;;;;;;;25.11;53.53;94882.13;5051938;28;20189;-64
2022/07/05 07:46:45;;;;;;;7.85;4.32;;;;;;;25.20;52.59;94904.25;5052596;28;20697;-62
2022/07/05 07:49:13;;;;;;;9.63;4.88;;;;;;;25.23;52.28;94911.66;5052246;28;20180;-60
2022/07/05 07:51:40;;;;;;;7.28;4.55;;;;;;;25.39;54.22;94851.22;5051983;28;20209;-64
2022/07/05 07:54:06;;;;;;;5.10;4.25;;;;;;;25.60;52.36;94895.88;5051959;28;20554;-63
2022/07/05 07:56:32;;;;;;;7.70;4.57;;;;;;;25.90;52.42;94903.00;5033770;28;20208;-62
2022/07/05 07:58:57;;;;;;;8.82;4.15;;;;;;;25.77;51.14;94943.00;5052002;28;20174;-63
2022/07/05 08:01:23;;;;;;;6.68;4.50;;;;;;;25.55;51.63;94913.19;5052470;28;20210;-63
2022/07/05 08:03:49;;;;;;;7.40;4.78;;;;;;;25.59;50.85;94935.94;5051991;28;20236;-65
2022/07/05 08:06:15;;;;;;;13.60;4.95;;;;;;;25.94;51.03;94920.56;5052131;28;20209;-62
2022/07/05 08:08:44;;;;;;;6.50;4.88;;;;;;;26.27;49.66;94964.53;5033846;28;20571;-62
2022/07/05 08:11:11;;;;;;;11.40;4.75;;;;;;;26.40;49.84;94946.91;5052142;28;20189;-62
2022/07/05 08:13:37;;;;;;;7.38;4.40;;;;;;;26.51;51.74;94894.03;5051612;28;20259;-63
2022/07/05 08:16:03;;;;;;;8.40;4.75;;;;;;;26.67;50.94;94923.09;5051648;28;20565;-61
2022/07/05 08:21:31;;;;;;;12.90;4.78;;;;;;;26.57;49.20;94952.31;5052401;28;20224;-64
2022/07/05 08:24:08;;;;;;;8.55;4.53;;;;;;;26.84;50.05;94930.13;5051801;28;20684;-64
2022/07/05 08:26:35;;;;;;;14.48;5.03;;;;;;;27.02;49.48;94937.06;5051920;28;20757;-64
2022/07/05 08:29:02;;;;;;;11.43;4.90;;;;;;;27.31;49.67;94938.84;5033751;28;20316;-62
2022/07/05 08:31:29;;;;;;;11.27;4.70;;;;;;;27.54;48.74;94953.75;5052080;28;20205;-65
2022/07/05 08:33:54;;;;;;;8.65;4.75;;;;;;;27.65;48.96;94952.97;5033694;28;20378;-62
2022/07/05 08:36:20;;;;;;;6.75;4.97;;;;;;;27.94;51.48;94881.44;5051841;28;20227;-60
2022/07/05 08:38:45;;;;;;;8.13;5.03;;;;;;;27.88;48.92;94955.56;5051772;28;20192;-64
2022/07/05 08:41:11;;;;;;;7.55;4.47;;;;;;;27.60;47.41;94987.59;5051981;28;20181;-63
2022/07/05 08:43:40;;;;;;;7.53;4.95;;;;;;;27.51;48.31;94957.63;5051493;28;20254;-62
2022/07/05 08:46:09;;;;;;;12.43;4.60;;;;;;;27.46;46.69;95001.09;5033523;28;20185;-64
2022/07/05 08:48:41;;;;;;;12.00;4.95;;;;;;;27.75;46.61;94993.19;5051418;28;20235;-64
2022/07/05 08:51:12;;;;;;;7.95;4.68;;;;;;;27.86;46.76;95004.66;5051842;28;20267;-61
2022/07/05 08:53:39;;;;;;;7.22;4.50;;;;;;;28.05;46.41;95001.72;5051434;28;20169;-64
2022/07/05 08:56:07;;;;;;;16.10;4.85;;;;;;;28.02;47.93;94939.44;5033636;28;20771;-64
2022/07/05 08:58:33;;;;;;;11.57;5.47;;;;;;;28.24;47.09;94968.38;5051735;28;20264;-63
2022/07/05 09:00:59;;;;;;;11.82;5.15;;;;;;;28.54;46.42;94989.13;5051684;28;20186;-60
2022/07/05 09:03:33;;;;;;;10.07;4.50;;;;;;;28.80;46.88;94988.63;5051519;28;20205;-59
2022/07/05 09:06:01;;;;;;;15.30;5.80;;;;;;;28.94;46.32;94974.22;5033720;28;20181;-64
2022/07/05 09:08:38;;;;;;;5.10;4.15;;;;;;;29.23;44.92;95030.78;5052961;28;20170;-60
2022/07/05 09:11:04;;;;;;;12.75;5.13;;;;;;;29.04;45.17;94996.13;5037655;28;20189;-60
2022/07/05 09:13:41;;;;;;;12.32;4.78;;;;;;;29.35;45.89;94991.44;5055455;28;20646;-62
2022/07/05 09:16:07;;;;;;;7.13;4.60;;;;;;;29.77;44.96;95005.78;5055484;28;20234;-60
2022/07/05 09:18:38;;;;;;;7.10;3.95;;;;;;;29.95;44.91;95016.00;5055322;28;20174;-63
2022/07/05 09:21:20;;;;;;;5.15;4.20;;;;;;;30.07;44.87;95010.66;5055310;28;20197;-60
2022/07/05 09:23:55;;;;;;;8.88;4.68;;;;;;;30.05;45.56;94963.69;5055102;28;20209;-65
2022/07/05 09:26:21;;;;;;;10.93;4.57;;;;;;;30.37;44.53;95011.09;5054873;28;20706;-66
2022/07/05 09:28:57;;;;;;;8.98;5.65;;;;;;;30.58;45.56;94973.56;5054924;28;20184;-63
2022/07/05 09:31:27;;;;;;;10.00;5.57;;;;;;;30.70;44.35;95000.47;5055073;28;20229;-63
2022/07/05 09:33:52;;;;;;;10.45;5.10;;;;;;;30.78;41.99;95085.91;5055030;28;20181;-64
2022/07/05 09:36:18;;;;;;;10.48;5.05;;;;;;;30.55;41.01;95100.03;5055082;28;20199;-65
2022/07/05 09:38:50;;;;;;;6.13;5.07;;;;;;;30.44;44.93;94959.97;5054677;28;20269;-64
2022/07/05 09:41:16;;;;;;;12.85;5.40;;;;;;;30.34;43.43;95027.31;5054414;28;20220;-62
2022/07/05 09:43:41;;;;;;;11.48;5.45;;;;;;;30.52;42.11;95061.94;5054456;28;20683;-64
2022/07/05 09:46:07;;;;;;;12.98;6.32;;;;;;;30.50;43.35;94993.13;5054461;28;20189;-65
2022/07/05 09:48:34;;;;;;;13.40;5.65;;;;;;;30.85;44.62;94947.31;5054503;28;20178;-65
2022/07/05 09:51:13;;;;;;;18.25;6.80;;;;;;;31.23;45.57;94926.91;5054695;28;20243;-64
2022/07/05 09:53:45;;;;;;;10.27;5.70;;;;;;;31.44;43.66;94983.09;5054462;28;20260;-60
2022/07/05 09:56:11;;;;;;;8.30;5.43;;;;;;;31.52;42.92;95008.94;5054734;28;20188;-61
2022/07/05 09:58:37;;;;;;;11.10;4.70;;;;;;;31.58;43.86;94972.94;5054163;28;20182;-64
2022/07/05 10:01:26;;;;;;;8.27;5.30;;;;;;;31.61;42.62;95009.28;5054531;28;20553;-60
2022/07/05 10:03:56;;;;;;;12.68;5.20;;;;;;;31.36;42.25;95013.25;5054058;28;20292;-61
2022/07/05 10:06:26;;;;;;;10.80;5.55;;;;;;;31.47;41.41;95042.28;5054461;28;20275;-61
2022/07/05 10:08:55;;;;;;;7.60;4.85;;;;;;;31.69;41.96;95008.81;5036126;28;20182;-65
2022/07/05 10:11:22;;;;;;;8.52;4.68;;;;;;;31.67;41.14;95042.47;5036284;28;20604;-60
2022/07/05 10:13:52;;;;;;;5.25;4.63;;;;;;;31.75;40.86;95044.63;5053909;28;20315;-61
2022/07/05 10:16:19;;;;;;;9.40;4.70;;;;;;;31.54;41.02;95024.47;5060785;22;20597;-63
2022/07/05 10:18:51;;;;;;;9.75;5.03;;;;;;;31.80;42.17;94978.91;5053966;28;20178;-63
2022/07/05 10:21:17;;;;;;;7.28;4.65;;;;;;;32.16;41.15;95031.53;5053556;28;20221;-62
2022/07/05 10:23:48;;;;;;;5.47;3.80;;;;;;;32.11;39.69;95078.88;5053751;28;20284;-63
2022/07/05 10:26:15;;;;;;;6.55;5.10;;;;;;;32.20;38.50;95116.06;5053808;28;20669;-64
2022/07/05 10:28:46;;;;;;;8.48;5.53;;;;;;;32.35;40.89;95007.41;5035767;28;20178;-65
2022/07/05 10:31:15;;;;;;;7.05;4.65;;;;;;;32.46;39.11;95072.28;5053829;28;20231;-66
2022/07/05 10:33:41;;;;;;;8.13;4.78;;;;;;;32.60;39.90;95026.78;5035612;28;20235;-63
2022/07/05 10:36:10;;;;;;;9.85;5.07;;;;;;;32.76;40.67;94986.28;5053582;28;20212;-60
2022/07/05 10:38:38;;;;;;;10.80;5.20;;;;;;;33.12;38.98;95068.09;5053366;28;20239;-64
2022/07/05 10:41:07;;;;;;;7.20;5.18;;;;;;;33.34;39.27;95047.56;5053531;28;20209;-65
2022/07/05 10:43:32;;;;;;;10.48;5.47;;;;;;;33.37;39.88;95013.56;5035432;28;20197;-61
2022/07/05 10:45:59;;;;;;;6.80;4.65;;;;;;;33.64;40.04;95006.22;5053612;28;20655;-63
2022/07/05 10:48:28;;;;;;;5.53;4.93;;;;;;;33.65;40.02;95012.31;5053405;28;20181;-65
2022/07/05 10:51:13;;;;;;;9.20;5.43;;;;;;;33.71;36.45;95127.34;5035223;28;20193;-65
2022/07/05 10:53:39;;;;;;;5.88;4.85;;;;;;;33.78;39.36;95020.47;5053459;28;20212;-63
2022/07/05 10:56:04;;;;;;;6.13;5.53;;;;;;;33.94;39.21;95010.69;5053545;28;20205;-62
2022/07/05 10:58:38;;;;;;;6.10;5.45;;;;;;;34.17;38.04;95075.38;5053067;28;20166;-60
2022/07/05 11:01:12;;;;;;;10.55;6.03;;;;;;;34.07;38.27;95056.91;5053262;28;20244;-63
2022/07/05 11:03:40;;;;;;;7.68;4.30;;;;;;;33.67;36.16;95126.28;5052910;28;20603;-63
2022/07/05 11:06:08;;;;;;;9.35;4.32;;;;;;;33.52;36.86;95074.28;5052932;28;20174;-62
2022/07/05 11:09:05;;;;;;;5.65;4.70;;;;;;;33.83;37.94;95024.97;5052760;28;20192;-64
2022/07/05 11:11:33;;;;;;;7.35;4.72;;;;;;;33.87;38.05;95031.28;5052947;28;20213;-63
2022/07/05 11:14:22;;;;;;;5.22;4.53;;;;;;;34.29;39.07;94991.38;5052777;28;20240;-64
2022/07/05 11:17:15;;;;;;;7.00;5.10;;;;;;;34.55;37.09;95043.88;5051987;28;20282;-64
2022/07/05 11:20:08;;;;;;;6.90;4.70;;;;;;;34.46;36.77;95076.38;5034843;28;20598;-64
2022/07/05 11:23:07;;;;;;;10.20;5.07;;;;;;;34.54;35.83;95081.91;5052498;28;20209;-61
2022/07/05 11:25:36;;;;;;;5.72;5.10;;;;;;;34.58;35.48;95127.13;5046571;28;20189;-62
2022/07/05 11:28:06;;;;;;;8.45;4.53;;;;;;;34.57;35.21;95136.88;5052199;28;20671;-61
2022/07/05 11:30:45;;;;;;;6.30;4.90;;;;;;;34.60;33.77;95159.34;5052553;28;20201;-64
2022/07/05 11:33:35;;;;;;;7.68;4.72;;;;;;;34.40;33.25;95212.16;5051662;28;20201;-65
2022/07/05 11:36:03;;;;;;;11.50;5.10;;;;;;;34.03;34.55;95130.56;5034308;28;20186;-63
2022/07/05 11:38:30;;;;;;;6.03;4.88;;;;;;;33.99;35.18;95081.19;5033890;28;20180;-64